KLAN/LAN METAR and TAF weather

Enter ICAO airport designator
Station Type Date Time Source
KLAN METAR 2022/06/26 06:53 UTC NOAA

KLAN 260653Z 16003KT 10SM OVC047 22/19 A2995 RMK AO2 RAB40E42 SLP136 P0000 T02170194


Station Type Date Time Source
KLAN Decoded METAR 2022/06/26 06:53 UTC NOAA

CAPITAL CITY AIRPORT, MI, United States (KLAN) 42-47N 084-35W 264M
Jun 26, 2022 - 02:53 AM EDT / 2022.06.26 0653 UTC
Wind: from the SSE (160 degrees) at 3 MPH (3 KT):0
Visibility: 10 mile(s):0
Sky conditions: overcast
Precipitation last hour: A trace
Temperature: 71.1 F (21.7 C)
Dew Point: 66.9 F (19.4 C)
Relative Humidity: 86%
Pressure (altimeter): 29.95 in. Hg (1014 hPa)
ob: KLAN 260653Z 16003KT 10SM OVC047 22/19 A2995 RMK AO2 RAB40E42 SLP136 P0000 T02170194
cycle: 7

Station Type Date Time Source
KLAN TAF 2022/06/26 06:33 UTC NOAA

TAF KLAN 260530Z 2606/2706 20006KT P6SM VCSH OVC035
FM261200 24008KT P6SM BKN010
FM261500 28008KT P6SM BKN035
FM261800 28014G21KT P6SM SCT100
FM270000 28011KT P6SM BKN250

Example: see airport list